createdAt,value
2022-08-11T00:01:54.028Z,5.70
2022-08-11T00:04:24.283Z,5.25
2022-08-11T00:06:52.292Z,5.75
2022-08-11T00:09:31.264Z,5.80
2022-08-11T00:11:59.166Z,5.53
2022-08-11T00:14:37.020Z,5.47
2022-08-11T00:17:10.745Z,5.82
2022-08-11T00:20:13.297Z,6.03
2022-08-11T00:22:32.742Z,5.88
2022-08-11T00:25:02.620Z,5.28
2022-08-11T00:27:34.942Z,5.88
2022-08-11T00:30:02.068Z,6.33
2022-08-11T00:32:29.966Z,5.53
2022-08-11T00:35:54.135Z,5.70
2022-08-11T00:37:53.565Z,6.15
2022-08-11T00:40:28.318Z,5.85
2022-08-11T00:43:39.249Z,5.85
2022-08-11T00:46:22.941Z,5.72
2022-08-11T00:49:18.487Z,6.00
2022-08-11T00:52:07.924Z,6.07
2022-08-11T00:55:03.442Z,5.97
2022-08-11T00:57:56.682Z,5.93
2022-08-11T01:03:24.818Z,6.60
2022-08-11T01:06:04.622Z,6.03
2022-08-11T01:11:55.200Z,6.25
2022-08-11T01:14:40.037Z,6.55
2022-08-11T01:17:25.354Z,6.45
2022-08-11T01:20:45.517Z,6.45
2022-08-11T01:23:23.286Z,5.97
2022-08-11T01:26:27.315Z,6.18
2022-08-11T01:29:35.639Z,6.38
2022-08-11T01:32:39.720Z,6.55
2022-08-11T01:35:37.364Z,6.43
2022-08-11T01:38:13.054Z,6.45
2022-08-11T01:41:01.009Z,6.50
2022-08-11T01:44:17.247Z,6.63
2022-08-11T01:46:50.281Z,6.40
2022-08-11T01:50:06.897Z,6.22
2022-08-11T01:52:39.947Z,6.63
2022-08-11T01:55:26.669Z,7.28
2022-08-11T01:58:15.258Z,7.00
2022-08-11T02:00:52.328Z,6.95
2022-08-11T02:03:48.171Z,6.93
2022-08-11T02:06:45.950Z,7.05
2022-08-11T02:09:50.051Z,7.20
2022-08-11T02:12:27.179Z,7.43
2022-08-11T02:15:05.535Z,7.30
2022-08-11T02:17:50.107Z,7.32
2022-08-11T02:20:46.395Z,7.40
2022-08-11T02:24:04.191Z,7.47
2022-08-11T02:26:31.738Z,7.57
2022-08-11T02:29:22.500Z,7.85
2022-08-11T02:32:30.218Z,7.22
2022-08-11T02:35:22.005Z,8.45
2022-08-11T02:38:14.248Z,7.75
2022-08-11T02:41:01.867Z,7.20
2022-08-11T02:43:52.656Z,8.35
2022-08-11T02:46:24.664Z,8.82
2022-08-11T02:49:18.166Z,7.60
2022-08-11T02:52:07.073Z,8.00
2022-08-11T02:54:53.518Z,8.70
2022-08-11T02:57:29.272Z,8.70
2022-08-11T03:00:07.475Z,8.90
2022-08-11T03:02:46.232Z,8.88
2022-08-11T03:05:13.758Z,8.55
2022-08-11T03:07:40.144Z,9.27
2022-08-11T03:10:17.287Z,9.02
2022-08-11T03:13:20.025Z,9.80
2022-08-11T03:16:23.057Z,9.50
2022-08-11T03:19:12.096Z,9.60
2022-08-11T03:22:02.521Z,9.90
2022-08-11T03:24:48.320Z,9.27
2022-08-11T03:27:30.398Z,10.10
2022-08-11T03:30:13.464Z,10.32
2022-08-11T03:38:30.396Z,9.70
2022-08-11T03:42:03.814Z,10.43
2022-08-11T03:47:55.061Z,10.75
2022-08-11T03:50:51.879Z,10.95
2022-08-11T03:53:45.344Z,10.88
2022-08-11T03:56:45.450Z,11.27
2022-08-11T03:59:35.968Z,11.23
2022-08-11T04:02:21.061Z,11.07
2022-08-11T04:05:09.369Z,11.68
2022-08-11T04:08:02.085Z,12.10
2022-08-11T04:11:09.649Z,12.07
2022-08-11T04:13:54.731Z,12.45
2022-08-11T04:16:44.509Z,11.85
2022-08-11T04:19:56.429Z,12.45
2022-08-11T04:22:41.671Z,12.73
2022-08-11T04:25:57.863Z,13.23
2022-08-11T04:28:49.857Z,13.75
2022-08-11T04:31:52.271Z,12.93
2022-08-11T04:34:51.510Z,13.20
2022-08-11T04:37:36.404Z,13.45
2022-08-11T04:40:18.010Z,13.98
2022-08-11T04:43:21.352Z,14.60
2022-08-11T04:46:28.470Z,13.57
2022-08-11T04:49:33.831Z,14.27
2022-08-11T04:52:41.711Z,13.95
2022-08-11T04:56:04.175Z,14.50
2022-08-11T04:59:08.291Z,14.18
2022-08-11T05:01:43.803Z,14.20
2022-08-11T05:04:34.913Z,14.07
2022-08-11T05:07:29.044Z,14.18
2022-08-11T05:10:29.635Z,15.30
2022-08-11T05:13:19.504Z,14.48
2022-08-11T05:16:09.974Z,14.80
2022-08-11T05:19:08.702Z,14.50
2022-08-11T05:21:57.297Z,14.30
2022-08-11T05:24:51.785Z,14.38
2022-08-11T05:27:40.157Z,14.18
2022-08-11T05:30:27.573Z,14.10
2022-08-11T05:33:40.524Z,13.30
2022-08-11T05:36:27.401Z,12.88
2022-08-11T05:39:36.508Z,14.15
2022-08-11T05:42:39.237Z,13.10
2022-08-11T05:46:03.204Z,13.20
2022-08-11T05:48:36.392Z,14.32
2022-08-11T05:51:29.907Z,14.52
2022-08-11T05:54:28.377Z,12.88
2022-08-11T05:57:01.543Z,12.85
2022-08-11T05:59:29.503Z,12.90
2022-08-11T06:02:02.612Z,12.75
2022-08-11T06:04:30.214Z,12.90
2022-08-11T06:07:08.796Z,12.38
2022-08-11T06:09:47.014Z,12.15
2022-08-11T06:12:32.459Z,13.20
2022-08-11T06:15:05.782Z,13.07
2022-08-11T06:17:39.039Z,12.73
2022-08-11T06:20:11.777Z,11.80
2022-08-11T06:22:55.793Z,13.23
2022-08-11T06:25:30.083Z,12.38
2022-08-11T06:27:57.369Z,11.90
2022-08-11T06:30:35.054Z,12.38
2022-08-11T06:33:04.626Z,12.50
2022-08-11T06:36:02.665Z,11.48
2022-08-11T06:39:08.475Z,12.25
2022-08-11T06:41:48.365Z,11.18
2022-08-11T06:44:16.497Z,12.25
2022-08-11T06:46:48.071Z,11.32
2022-08-11T06:49:35.192Z,11.95
2022-08-11T06:52:06.014Z,10.75
2022-08-11T06:54:36.266Z,11.05
2022-08-11T06:57:31.644Z,11.05
2022-08-11T07:00:18.415Z,9.82
2022-08-11T07:03:09.065Z,9.85
2022-08-11T07:05:55.593Z,9.60
2022-08-11T07:09:13.930Z,8.50
2022-08-11T07:12:13.653Z,6.95
2022-08-11T07:15:07.939Z,6.57
2022-08-11T07:17:42.560Z,6.28
2022-08-11T07:20:29.448Z,5.90
2022-08-11T07:23:20.070Z,6.00
2022-08-11T07:26:10.240Z,6.03
2022-08-11T07:28:55.939Z,5.50
2022-08-11T07:31:29.193Z,5.35
2022-08-11T07:34:22.680Z,4.80
2022-08-11T07:37:03.457Z,4.53
2022-08-11T07:39:33.897Z,4.68
2022-08-11T07:42:07.212Z,4.55
2022-08-11T07:44:54.970Z,4.13
2022-08-11T07:47:41.598Z,4.35
2022-08-11T07:50:28.102Z,4.38
2022-08-11T07:52:55.620Z,3.88
2022-08-11T07:55:50.750Z,3.47
2022-08-11T07:58:34.097Z,3.90
2022-08-11T08:01:36.665Z,3.70
2022-08-11T08:04:27.809Z,3.33
2022-08-11T08:07:13.720Z,3.40
2022-08-11T08:10:00.478Z,3.22
2022-08-11T08:12:45.802Z,3.33
2022-08-11T08:15:33.558Z,3.67
2022-08-11T08:18:09.442Z,3.60
2022-08-11T08:20:50.864Z,3.28
2022-08-11T08:23:34.440Z,3.28
2022-08-11T08:26:04.482Z,3.10
2022-08-11T08:28:33.282Z,3.10
2022-08-11T08:31:00.288Z,3.28
2022-08-11T08:33:29.607Z,2.72
2022-08-11T08:36:16.237Z,3.15
2022-08-11T08:38:48.958Z,3.17
2022-08-11T08:41:21.984Z,2.63
2022-08-11T08:43:52.051Z,2.88
2022-08-11T08:46:22.255Z,2.95
2022-08-11T08:48:50.341Z,2.75
2022-08-11T08:51:54.874Z,2.92
2022-08-11T08:54:38.041Z,2.83
2022-08-11T08:57:07.967Z,3.03
2022-08-11T08:59:49.122Z,3.05
2022-08-11T09:02:33.948Z,2.67
2022-08-11T09:05:09.826Z,2.80
2022-08-11T09:07:38.681Z,3.03
2022-08-11T09:10:08.321Z,3.25
2022-08-11T09:12:41.559Z,2.60
2022-08-11T09:15:11.513Z,2.85
2022-08-11T09:17:47.498Z,2.90
2022-08-11T09:20:17.434Z,2.97
2022-08-11T09:26:17.612Z,2.80
2022-08-11T09:28:45.954Z,2.80
2022-08-11T09:31:14.535Z,2.95
2022-08-11T09:33:43.194Z,2.95
2022-08-11T09:36:31.056Z,3.17
2022-08-11T09:39:18.496Z,2.53
2022-08-11T09:42:00.806Z,3.05
2022-08-11T09:44:48.869Z,3.00
2022-08-11T09:47:24.666Z,2.70
2022-08-11T09:49:55.038Z,3.08
2022-08-11T09:52:23.659Z,2.85
2022-08-11T09:54:52.259Z,2.65
2022-08-11T09:57:41.812Z,2.78
2022-08-11T10:00:13.600Z,2.92
2022-08-11T10:02:50.260Z,2.45
2022-08-11T10:05:37.819Z,2.45
2022-08-11T10:08:05.754Z,2.40
2022-08-11T10:10:37.644Z,2.30
2022-08-11T10:14:30.421Z,2.40
2022-08-11T10:16:14.422Z,2.25
2022-08-11T10:18:52.286Z,2.40
2022-08-11T10:21:28.926Z,2.25
2022-08-11T10:24:17.543Z,2.10
2022-08-11T10:26:55.071Z,2.45
2022-08-11T10:29:51.959Z,2.47
2022-08-11T10:32:58.050Z,2.50
2022-08-11T10:35:28.038Z,2.22
2022-08-11T10:38:07.414Z,1.95
2022-08-11T10:40:46.824Z,2.17
2022-08-11T10:43:18.797Z,2.00
2022-08-11T10:46:19.824Z,1.98
2022-08-11T10:48:59.064Z,2.00
2022-08-11T10:51:51.042Z,2.00
2022-08-11T10:54:40.153Z,2.20
2022-08-11T10:57:25.558Z,2.00
2022-08-11T10:59:55.045Z,2.10
2022-08-11T11:02:22.490Z,1.83
2022-08-11T11:05:02.923Z,2.08
2022-08-11T11:07:44.333Z,2.20
2022-08-11T11:13:04.274Z,2.20
2022-08-11T11:15:53.157Z,2.10
2022-08-11T11:18:22.617Z,1.77
2022-08-11T11:20:57.871Z,1.88
2022-08-11T11:23:39.653Z,1.90
2022-08-11T11:29:02.996Z,2.00
2022-08-11T11:31:51.610Z,2.10
2022-08-11T11:34:52.936Z,2.10
2022-08-11T11:37:23.673Z,1.85
2022-08-11T11:39:50.786Z,2.00
2022-08-11T11:42:18.527Z,1.70
2022-08-11T11:44:46.945Z,2.00
2022-08-11T11:47:15.484Z,2.00
2022-08-11T11:49:44.065Z,1.98
2022-08-11T11:52:20.116Z,2.17
2022-08-11T11:54:51.350Z,1.95
2022-08-11T11:57:38.947Z,1.70
2022-08-11T12:00:33.172Z,1.85
2022-08-11T12:03:03.681Z,2.03
2022-08-11T12:05:33.372Z,2.00
2022-08-11T12:08:15.920Z,2.10
2022-08-11T12:11:30.689Z,2.05
2022-08-11T12:14:00.579Z,1.70
2022-08-11T12:16:33.384Z,1.95
2022-08-11T12:19:05.221Z,2.53
2022-08-11T12:21:34.019Z,1.77
2022-08-11T12:24:20.625Z,2.00
2022-08-11T12:26:54.433Z,2.05
2022-08-11T12:29:35.365Z,2.00
2022-08-11T12:32:07.318Z,2.10
2022-08-11T12:34:34.068Z,2.03
2022-08-11T12:37:05.532Z,1.92
2022-08-11T12:40:16.023Z,2.33
2022-08-11T12:43:03.883Z,1.98
2022-08-11T12:45:31.489Z,1.70
2022-08-11T12:49:00.477Z,1.90
2022-08-11T12:52:11.160Z,1.60
2022-08-11T12:54:29.818Z,2.00
2022-08-11T12:57:36.789Z,2.00
2022-08-11T13:00:25.354Z,1.95
2022-08-11T13:03:11.946Z,2.10
2022-08-11T13:05:44.967Z,1.95
2022-08-11T13:08:14.968Z,2.03
2022-08-11T13:11:01.534Z,2.00
2022-08-11T13:13:55.226Z,1.90
2022-08-11T13:16:16.175Z,2.00
2022-08-11T13:18:44.238Z,2.00
2022-08-11T13:21:12.967Z,1.95
2022-08-11T13:24:01.507Z,1.90
2022-08-11T13:26:48.305Z,2.00
2022-08-11T13:29:28.541Z,2.15
2022-08-11T13:32:00.263Z,2.00
2022-08-11T13:34:28.430Z,1.83
2022-08-11T13:36:59.248Z,2.20
2022-08-11T13:39:28.423Z,1.85
2022-08-11T13:41:57.264Z,2.30
2022-08-11T13:44:29.923Z,1.98
2022-08-11T13:46:59.182Z,2.20
2022-08-11T13:49:26.338Z,2.20
2022-08-11T13:51:54.943Z,2.33
2022-08-11T13:54:25.946Z,2.83
2022-08-11T13:56:56.055Z,2.30
2022-08-11T13:59:24.020Z,2.30
2022-08-11T14:02:20.678Z,2.50
2022-08-11T14:05:10.022Z,2.50
2022-08-11T14:07:45.463Z,2.25
2022-08-11T14:10:14.454Z,2.30
2022-08-11T14:13:06.210Z,2.30
2022-08-11T14:15:34.886Z,2.20
2022-08-11T14:18:06.386Z,2.20
2022-08-11T14:23:28.853Z,2.40
2022-08-11T14:26:15.057Z,2.30
2022-08-11T14:28:45.030Z,2.20
2022-08-11T14:31:16.226Z,2.22
2022-08-11T14:34:00.513Z,2.30
2022-08-11T14:36:51.495Z,2.10
2022-08-11T14:39:22.183Z,2.15
2022-08-11T14:42:16.714Z,1.92
2022-08-11T14:45:14.488Z,1.83
2022-08-11T14:47:43.936Z,1.92
2022-08-11T14:50:23.093Z,2.03
2022-08-11T14:52:52.585Z,2.22
2022-08-11T14:55:39.945Z,2.13
2022-08-11T14:58:11.099Z,1.90
2022-08-11T15:00:39.238Z,2.00
2022-08-11T15:03:12.682Z,1.95
2022-08-11T15:05:55.981Z,1.90
2022-08-11T15:08:45.869Z,1.80
2022-08-11T15:11:33.273Z,1.92
2022-08-11T15:14:02.251Z,2.08
2022-08-11T15:16:52.498Z,2.20
2022-08-11T15:19:21.383Z,2.00
2022-08-11T15:22:08.391Z,1.90
2022-08-11T15:24:36.581Z,1.80
2022-08-11T15:27:30.917Z,1.70
2022-08-11T15:30:33.012Z,1.92
2022-08-11T15:33:23.223Z,1.73
2022-08-11T15:36:23.575Z,1.60
2022-08-11T15:39:20.920Z,1.80
2022-08-11T15:42:33.716Z,1.77
2022-08-11T15:48:05.813Z,1.65
2022-08-11T15:50:34.889Z,1.60
2022-08-11T15:53:11.771Z,1.60
2022-08-11T15:55:39.229Z,1.60
2022-08-11T15:58:28.137Z,1.83
2022-08-11T16:01:15.618Z,1.60
2022-08-11T16:04:12.807Z,1.80
2022-08-11T16:06:49.923Z,1.83
2022-08-11T16:09:24.998Z,1.80
2022-08-11T16:11:55.686Z,1.60
2022-08-11T16:14:43.015Z,1.80
2022-08-11T16:17:11.848Z,1.75
2022-08-11T16:19:40.951Z,1.50
2022-08-11T16:22:10.238Z,1.67
2022-08-11T16:27:06.987Z,1.70
2022-08-11T16:27:33.945Z,1.75
2022-08-11T16:30:01.745Z,1.60
2022-08-11T16:32:31.151Z,1.50
2022-08-11T16:35:19.637Z,1.70
2022-08-11T16:38:06.022Z,1.65
2022-08-11T16:40:33.535Z,1.70
2022-08-11T16:43:21.770Z,1.58
2022-08-11T16:46:07.970Z,1.70
2022-08-11T16:48:39.003Z,1.83
2022-08-11T16:51:07.682Z,1.63
2022-08-11T16:53:59.570Z,1.67
2022-08-11T16:56:35.237Z,1.83
2022-08-11T16:59:17.634Z,2.08
2022-08-11T17:01:57.969Z,1.80
2022-08-11T17:05:05.375Z,2.08
2022-08-11T17:07:51.511Z,1.70
2022-08-11T17:10:50.970Z,1.77
2022-08-11T17:13:22.514Z,1.45
2022-08-11T17:16:08.925Z,1.75
2022-08-11T17:18:51.217Z,1.90
2022-08-11T17:21:35.642Z,1.60
2022-08-11T17:24:09.486Z,1.70
2022-08-11T17:26:56.791Z,1.73
2022-08-11T17:29:32.041Z,1.75
2022-08-11T17:32:20.146Z,1.70
2022-08-11T17:35:08.177Z,1.80
2022-08-11T17:37:37.537Z,2.15
2022-08-11T17:40:08.967Z,1.65
2022-08-11T17:42:55.101Z,2.17
2022-08-11T17:45:42.373Z,1.83
2022-08-11T17:48:26.160Z,1.70
2022-08-11T17:50:59.157Z,1.60
2022-08-11T17:54:17.037Z,1.80
2022-08-11T17:56:54.111Z,1.70
2022-08-11T17:59:39.606Z,1.70
2022-08-11T18:02:34.420Z,1.63
2022-08-11T18:05:07.417Z,1.55
2022-08-11T18:07:59.877Z,1.60
2022-08-11T18:10:47.506Z,1.65
2022-08-11T18:13:35.327Z,1.80
2022-08-11T18:16:20.276Z,1.80
2022-08-11T18:19:05.218Z,2.08
2022-08-11T18:22:12.920Z,1.70
2022-08-11T18:25:00.327Z,1.65
2022-08-11T18:27:50.155Z,2.00
2022-08-11T18:30:35.529Z,1.80
2022-08-11T18:36:30.097Z,2.00
2022-08-11T18:39:16.567Z,2.00
2022-08-11T18:42:05.290Z,2.05
2022-08-11T18:44:52.395Z,2.08
2022-08-11T18:47:40.513Z,2.20
2022-08-11T18:50:39.616Z,2.25
2022-08-11T18:53:26.468Z,2.10
2022-08-11T18:56:12.391Z,2.30
2022-08-11T18:59:01.448Z,2.10
2022-08-11T19:01:54.976Z,2.30
2022-08-11T19:04:41.210Z,2.20
2022-08-11T19:07:28.127Z,2.10
2022-08-11T19:10:14.415Z,1.95
2022-08-11T19:13:01.255Z,2.30
2022-08-11T19:15:47.717Z,2.40
2022-08-11T19:18:37.674Z,2.40
2022-08-11T19:21:24.951Z,2.28
2022-08-11T19:24:12.741Z,2.40
2022-08-11T19:26:59.021Z,2.30
2022-08-11T19:30:09.064Z,2.63
2022-08-11T19:32:51.223Z,2.60
2022-08-11T19:35:37.544Z,2.88
2022-08-11T19:38:23.651Z,2.50
2022-08-11T19:41:09.901Z,2.35
2022-08-11T19:43:57.068Z,2.65
2022-08-11T19:46:44.053Z,2.47
2022-08-11T19:49:29.233Z,2.65
2022-08-11T19:52:16.015Z,2.95
2022-08-11T19:55:03.216Z,2.40
2022-08-11T19:57:50.046Z,2.60
2022-08-11T20:00:37.746Z,2.47
2022-08-11T20:03:25.704Z,2.35
2022-08-11T20:06:13.657Z,2.60
2022-08-11T20:09:02.125Z,2.47
2022-08-11T20:11:51.960Z,2.72
2022-08-11T20:14:39.423Z,2.58
2022-08-11T20:17:26.367Z,2.70
2022-08-11T20:20:11.664Z,2.50
2022-08-11T20:22:58.251Z,2.50
2022-08-11T20:25:44.349Z,3.05
2022-08-11T20:28:31.677Z,2.83
2022-08-11T20:31:16.930Z,2.60
2022-08-11T20:34:03.162Z,2.53
2022-08-11T20:36:54.082Z,2.75
2022-08-11T20:39:41.366Z,2.97
2022-08-11T20:42:30.446Z,2.72
2022-08-11T20:45:18.794Z,3.08
2022-08-11T20:48:14.892Z,2.80
2022-08-11T20:51:07.380Z,2.72
2022-08-11T20:53:59.167Z,2.88
2022-08-11T20:56:53.518Z,2.85
2022-08-11T20:59:49.433Z,3.03
2022-08-11T21:02:44.426Z,3.47
2022-08-11T21:06:09.009Z,3.20
2022-08-11T21:08:36.632Z,3.20
2022-08-11T21:11:27.641Z,3.25
2022-08-11T21:14:13.591Z,2.85
2022-08-11T21:17:00.528Z,3.15
2022-08-11T21:20:06.678Z,2.88
2022-08-11T21:23:05.464Z,3.00
2022-08-11T21:25:59.255Z,3.22
2022-08-11T21:28:47.183Z,2.97
2022-08-11T21:31:33.445Z,3.30
2022-08-11T21:34:19.735Z,3.10
2022-08-11T21:37:07.752Z,3.33
2022-08-11T21:39:53.430Z,3.47
2022-08-11T21:42:40.222Z,3.40
2022-08-11T21:45:28.909Z,3.53
2022-08-11T21:48:15.193Z,3.40
2022-08-11T21:51:00.004Z,3.35
2022-08-11T21:53:46.240Z,3.78
2022-08-11T21:56:34.886Z,3.20
2022-08-11T21:59:20.646Z,3.55
2022-08-11T22:02:12.419Z,3.35
2022-08-11T22:04:58.362Z,3.22
2022-08-11T22:07:43.705Z,3.20
2022-08-11T22:10:42.251Z,3.60
2022-08-11T22:13:31.424Z,3.80
2022-08-11T22:16:19.869Z,3.30
2022-08-11T22:19:06.024Z,3.25
2022-08-11T22:22:02.366Z,3.30
2022-08-11T22:24:52.041Z,3.17
2022-08-11T22:27:39.159Z,3.50
2022-08-11T22:30:28.633Z,3.22
2022-08-11T22:33:16.375Z,3.60
2022-08-11T22:36:03.662Z,3.50
2022-08-11T22:38:51.142Z,3.17
2022-08-11T22:41:36.397Z,3.30
2022-08-11T22:44:24.901Z,3.10
2022-08-11T22:47:12.204Z,3.28
2022-08-11T22:49:58.677Z,3.38
2022-08-11T22:52:46.673Z,3.47
2022-08-11T22:55:34.713Z,3.40
2022-08-11T22:58:21.982Z,4.10
2022-08-11T23:01:08.343Z,4.00
2022-08-11T23:03:54.060Z,3.53
2022-08-11T23:06:40.464Z,3.33
2022-08-11T23:09:27.406Z,3.72
2022-08-11T23:12:12.811Z,3.72
2022-08-11T23:14:59.644Z,3.47
2022-08-11T23:17:46.529Z,3.60
2022-08-11T23:20:42.358Z,3.35
2022-08-11T23:23:32.140Z,3.80
2022-08-11T23:26:18.626Z,3.80
2022-08-11T23:29:05.359Z,3.83
2022-08-11T23:31:53.914Z,3.60
2022-08-11T23:35:37.132Z,4.05
2022-08-11T23:37:47.021Z,4.00
2022-08-11T23:40:32.082Z,3.53
2022-08-11T23:43:17.018Z,4.00
2022-08-11T23:46:01.999Z,3.60
2022-08-11T23:48:48.849Z,3.70
2022-08-11T23:51:40.719Z,4.00
2022-08-11T23:54:26.900Z,4.18
2022-08-11T23:57:13.121Z,3.83
2022-08-11T23:59:58.537Z,4.03
